Akron, Ohio
Current Conditions -  °F | °C
As of 11:54 PM on Wednesday 22 Oct 2014 (Local Time) from KAKR Reporting Station
Overcast Overcast  
Wind Chill: 47°   Ceiling: 4000
Heat Index: 49°   Visibility: 10mi
Dew Point: 44°   Wind: 6mph
Humidity: 83%   Direction: 340°NNW
Pressure: 30.2"   Gusts: NA
Location:  41.08°N, 81.51°W
Report Text: KAKR 230354Z AUTO 34005KT 10SM OVC040 09/07 A3020 RMK AO2 SLP230 T00940067
Loading
Personal Weather Stations






























Interactive Weather Map
Tropical Storm Tracking
New forecast layout! Learn more

10-Day Weather Forecast

Advertisements
Track Severe Weather on mobile